sensor_id;sensor_type;location;lat;lon;timestamp;P1;durP1;ratioP1;P2;durP2;ratioP2
56037;SDS011;41907;47.848;9.000;2023-07-24T00:00:13;13.85;;;7.45;;
56037;SDS011;41907;47.848;9.000;2023-07-24T00:02:39;13.32;;;6.60;;
56037;SDS011;41907;47.848;9.000;2023-07-24T00:05:04;14.00;;;7.28;;
56037;SDS011;41907;47.848;9.000;2023-07-24T00:07:30;11.73;;;6.88;;
56037;SDS011;41907;47.848;9.000;2023-07-24T00:09:55;11.98;;;7.00;;
56037;SDS011;41907;47.848;9.000;2023-07-24T00:12:21;13.30;;;7.07;;
56037;SDS011;41907;47.848;9.000;2023-07-24T00:14:47;13.60;;;7.20;;
56037;SDS011;41907;47.848;9.000;2023-07-24T00:17:12;15.23;;;6.93;;
56037;SDS011;41907;47.848;9.000;2023-07-24T00:19:37;12.77;;;7.25;;
56037;SDS011;41907;47.848;9.000;2023-07-24T00:22:03;11.48;;;6.68;;
56037;SDS011;41907;47.848;9.000;2023-07-24T00:24:29;11.82;;;6.72;;
56037;SDS011;41907;47.848;9.000;2023-07-24T00:26:56;12.65;;;6.88;;
56037;SDS011;41907;47.848;9.000;2023-07-24T00:29:21;10.27;;;6.63;;
56037;SDS011;41907;47.848;9.000;2023-07-24T00:31:47;11.18;;;7.15;;
56037;SDS011;41907;47.848;9.000;2023-07-24T00:34:12;12.43;;;6.82;;
56037;SDS011;41907;47.848;9.000;2023-07-24T00:36:38;11.57;;;7.10;;
56037;SDS011;41907;47.848;9.000;2023-07-24T00:39:03;13.57;;;8.27;;
56037;SDS011;41907;47.848;9.000;2023-07-24T00:41:28;10.05;;;6.90;;
56037;SDS011;41907;47.848;9.000;2023-07-24T00:43:54;12.02;;;6.90;;
56037;SDS011;41907;47.848;9.000;2023-07-24T00:46:19;13.13;;;7.05;;
56037;SDS011;41907;47.848;9.000;2023-07-24T00:48:45;11.70;;;7.38;;
56037;SDS011;41907;47.848;9.000;2023-07-24T00:51:10;12.05;;;7.00;;
56037;SDS011;41907;47.848;9.000;2023-07-24T00:53:36;10.98;;;6.57;;
56037;SDS011;41907;47.848;9.000;2023-07-24T00:56:01;12.88;;;7.22;;
56037;SDS011;41907;47.848;9.000;2023-07-24T00:58:27;11.00;;;6.70;;
56037;SDS011;41907;47.848;9.000;2023-07-24T01:00:53;13.90;;;7.07;;
56037;SDS011;41907;47.848;9.000;2023-07-24T01:03:18;13.77;;;7.50;;
56037;SDS011;41907;47.848;9.000;2023-07-24T01:05:44;14.02;;;8.07;;
56037;SDS011;41907;47.848;9.000;2023-07-24T01:08:09;12.45;;;7.53;;
56037;SDS011;41907;47.848;9.000;2023-07-24T01:10:34;15.38;;;7.43;;
56037;SDS011;41907;47.848;9.000;2023-07-24T01:13:16;18.48;;;9.80;;
56037;SDS011;41907;47.848;9.000;2023-07-24T01:16:30;26.15;;;13.65;;
56037;SDS011;41907;47.848;9.000;2023-07-24T01:18:39;29.92;;;15.50;;
56037;SDS011;41907;47.848;9.000;2023-07-24T01:21:04;31.95;;;15.43;;
56037;SDS011;41907;47.848;9.000;2023-07-24T01:26:15;26.75;;;14.70;;
56037;SDS011;41907;47.848;9.000;2023-07-24T01:28:41;39.38;;;18.88;;
56037;SDS011;41907;47.848;9.000;2023-07-24T01:31:07;43.17;;;21.20;;
56037;SDS011;41907;47.848;9.000;2023-07-24T01:33:32;42.97;;;23.58;;
56037;SDS011;41907;47.848;9.000;2023-07-24T01:36:00;43.17;;;22.15;;
56037;SDS011;41907;47.848;9.000;2023-07-24T01:38:27;37.92;;;19.02;;
56037;SDS011;41907;47.848;9.000;2023-07-24T01:40:55;30.35;;;16.70;;
56037;SDS011;41907;47.848;9.000;2023-07-24T01:43:22;21.52;;;12.52;;
56037;SDS011;41907;47.848;9.000;2023-07-24T01:45:47;18.55;;;9.95;;
56037;SDS011;41907;47.848;9.000;2023-07-24T01:48:13;12.85;;;8.85;;
56037;SDS011;41907;47.848;9.000;2023-07-24T01:50:38;14.70;;;8.57;;
56037;SDS011;41907;47.848;9.000;2023-07-24T01:53:04;15.07;;;8.90;;
56037;SDS011;41907;47.848;9.000;2023-07-24T01:55:29;14.07;;;8.38;;
56037;SDS011;41907;47.848;9.000;2023-07-24T01:57:54;13.80;;;7.90;;
56037;SDS011;41907;47.848;9.000;2023-07-24T02:00:20;12.55;;;7.75;;
56037;SDS011;41907;47.848;9.000;2023-07-24T02:02:45;12.30;;;7.80;;
56037;SDS011;41907;47.848;9.000;2023-07-24T02:05:10;16.70;;;9.05;;
56037;SDS011;41907;47.848;9.000;2023-07-24T02:07:36;16.98;;;10.57;;
56037;SDS011;41907;47.848;9.000;2023-07-24T02:10:01;19.75;;;9.00;;
56037;SDS011;41907;47.848;9.000;2023-07-24T02:12:26;15.23;;;9.25;;
56037;SDS011;41907;47.848;9.000;2023-07-24T02:14:52;12.85;;;7.88;;
56037;SDS011;41907;47.848;9.000;2023-07-24T02:17:18;13.07;;;7.18;;
56037;SDS011;41907;47.848;9.000;2023-07-24T02:19:44;15.73;;;8.23;;
56037;SDS011;41907;47.848;9.000;2023-07-24T02:22:09;13.15;;;7.90;;
56037;SDS011;41907;47.848;9.000;2023-07-24T02:24:35;13.88;;;8.25;;
56037;SDS011;41907;47.848;9.000;2023-07-24T02:27:00;14.48;;;7.97;;
56037;SDS011;41907;47.848;9.000;2023-07-24T02:29:26;13.65;;;8.32;;
56037;SDS011;41907;47.848;9.000;2023-07-24T02:31:53;15.15;;;8.90;;
56037;SDS011;41907;47.848;9.000;2023-07-24T02:34:19;15.90;;;9.10;;
56037;SDS011;41907;47.848;9.000;2023-07-24T02:36:49;19.15;;;9.68;;
56037;SDS011;41907;47.848;9.000;2023-07-24T02:39:14;18.08;;;10.18;;
56037;SDS011;41907;47.848;9.000;2023-07-24T02:41:40;14.68;;;9.60;;
56037;SDS011;41907;47.848;9.000;2023-07-24T02:44:05;15.43;;;9.35;;
56037;SDS011;41907;47.848;9.000;2023-07-24T02:46:30;17.98;;;9.90;;
56037;SDS011;41907;47.848;9.000;2023-07-24T02:48:56;13.75;;;8.77;;
56037;SDS011;41907;47.848;9.000;2023-07-24T02:51:21;15.50;;;9.35;;
56037;SDS011;41907;47.848;9.000;2023-07-24T02:53:46;13.65;;;8.80;;
56037;SDS011;41907;47.848;9.000;2023-07-24T02:56:12;14.90;;;8.77;;
56037;SDS011;41907;47.848;9.000;2023-07-24T02:58:37;14.63;;;9.10;;
56037;SDS011;41907;47.848;9.000;2023-07-24T03:01:06;16.92;;;8.50;;
56037;SDS011;41907;47.848;9.000;2023-07-24T03:03:33;17.13;;;9.40;;
56037;SDS011;41907;47.848;9.000;2023-07-24T03:05:59;18.05;;;10.15;;
56037;SDS011;41907;47.848;9.000;2023-07-24T03:08:25;15.93;;;8.55;;
56037;SDS011;41907;47.848;9.000;2023-07-24T03:10:50;13.73;;;7.65;;
56037;SDS011;41907;47.848;9.000;2023-07-24T03:13:15;14.93;;;7.88;;
56037;SDS011;41907;47.848;9.000;2023-07-24T03:15:41;15.05;;;8.35;;
56037;SDS011;41907;47.848;9.000;2023-07-24T03:18:06;16.23;;;9.00;;
56037;SDS011;41907;47.848;9.000;2023-07-24T03:20:31;15.50;;;8.27;;
56037;SDS011;41907;47.848;9.000;2023-07-24T03:22:57;14.95;;;8.05;;
56037;SDS011;41907;47.848;9.000;2023-07-24T03:25:22;14.75;;;8.13;;
56037;SDS011;41907;47.848;9.000;2023-07-24T03:27:47;14.00;;;8.25;;
56037;SDS011;41907;47.848;9.000;2023-07-24T03:30:13;13.15;;;7.82;;
56037;SDS011;41907;47.848;9.000;2023-07-24T03:32:38;13.13;;;7.90;;
56037;SDS011;41907;47.848;9.000;2023-07-24T03:35:04;15.90;;;7.80;;
56037;SDS011;41907;47.848;9.000;2023-07-24T03:37:30;13.75;;;8.35;;
56037;SDS011;41907;47.848;9.000;2023-07-24T03:39:56;20.38;;;10.90;;
56037;SDS011;41907;47.848;9.000;2023-07-24T03:42:25;19.05;;;10.35;;
56037;SDS011;41907;47.848;9.000;2023-07-24T03:44:51;12.52;;;7.50;;
56037;SDS011;41907;47.848;9.000;2023-07-24T03:47:17;13.15;;;7.93;;
56037;SDS011;41907;47.848;9.000;2023-07-24T03:49:42;12.05;;;7.88;;
56037;SDS011;41907;47.848;9.000;2023-07-24T03:52:07;17.85;;;9.18;;
56037;SDS011;41907;47.848;9.000;2023-07-24T03:54:33;13.88;;;8.45;;
56037;SDS011;41907;47.848;9.000;2023-07-24T03:56:58;15.57;;;8.40;;
56037;SDS011;41907;47.848;9.000;2023-07-24T03:59:24;14.88;;;9.38;;
56037;SDS011;41907;47.848;9.000;2023-07-24T04:01:49;14.75;;;8.75;;
56037;SDS011;41907;47.848;9.000;2023-07-24T04:04:14;14.10;;;8.20;;
56037;SDS011;41907;47.848;9.000;2023-07-24T04:06:40;15.00;;;8.70;;
56037;SDS011;41907;47.848;9.000;2023-07-24T04:09:05;16.10;;;8.52;;
56037;SDS011;41907;47.848;9.000;2023-07-24T04:11:30;12.25;;;7.75;;
56037;SDS011;41907;47.848;9.000;2023-07-24T04:13:56;15.82;;;8.80;;
56037;SDS011;41907;47.848;9.000;2023-07-24T04:16:21;14.52;;;7.90;;
56037;SDS011;41907;47.848;9.000;2023-07-24T04:18:46;12.45;;;7.82;;
56037;SDS011;41907;47.848;9.000;2023-07-24T04:21:12;12.57;;;8.63;;
56037;SDS011;41907;47.848;9.000;2023-07-24T04:23:37;14.90;;;8.60;;
56037;SDS011;41907;47.848;9.000;2023-07-24T04:26:02;14.48;;;8.70;;
56037;SDS011;41907;47.848;9.000;2023-07-24T04:28:28;12.70;;;8.00;;
56037;SDS011;41907;47.848;9.000;2023-07-24T04:30:53;12.82;;;8.20;;
56037;SDS011;41907;47.848;9.000;2023-07-24T04:33:18;17.60;;;10.30;;
56037;SDS011;41907;47.848;9.000;2023-07-24T04:35:47;12.52;;;7.18;;
56037;SDS011;41907;47.848;9.000;2023-07-24T04:38:13;13.57;;;7.60;;
56037;SDS011;41907;47.848;9.000;2023-07-24T04:40:38;14.10;;;8.02;;
56037;SDS011;41907;47.848;9.000;2023-07-24T04:43:04;12.98;;;8.25;;
56037;SDS011;41907;47.848;9.000;2023-07-24T04:45:29;14.25;;;7.80;;
56037;SDS011;41907;47.848;9.000;2023-07-24T04:47:54;13.10;;;8.18;;
56037;SDS011;41907;47.848;9.000;2023-07-24T04:50:20;15.10;;;8.07;;
56037;SDS011;41907;47.848;9.000;2023-07-24T04:52:45;14.57;;;8.65;;
56037;SDS011;41907;47.848;9.000;2023-07-24T04:55:10;11.63;;;7.93;;
56037;SDS011;41907;47.848;9.000;2023-07-24T04:57:36;14.20;;;7.78;;
56037;SDS011;41907;47.848;9.000;2023-07-24T05:00:01;14.05;;;7.63;;
56037;SDS011;41907;47.848;9.000;2023-07-24T05:02:28;12.40;;;7.82;;
56037;SDS011;41907;47.848;9.000;2023-07-24T05:04:53;10.98;;;7.40;;
56037;SDS011;41907;47.848;9.000;2023-07-24T05:07:18;24.67;;;11.52;;
56037;SDS011;41907;47.848;9.000;2023-07-24T05:09:44;25.90;;;12.07;;
56037;SDS011;41907;47.848;9.000;2023-07-24T05:12:09;23.77;;;11.57;;
56037;SDS011;41907;47.848;9.000;2023-07-24T05:14:34;38.28;;;23.63;;
56037;SDS011;41907;47.848;9.000;2023-07-24T05:17:00;20.90;;;13.25;;
56037;SDS011;41907;47.848;9.000;2023-07-24T05:19:25;22.25;;;11.98;;
56037;SDS011;41907;47.848;9.000;2023-07-24T05:21:50;17.48;;;10.38;;
56037;SDS011;41907;47.848;9.000;2023-07-24T05:24:16;22.77;;;14.68;;
56037;SDS011;41907;47.848;9.000;2023-07-24T05:26:41;20.40;;;11.85;;
56037;SDS011;41907;47.848;9.000;2023-07-24T05:29:06;44.55;;;28.98;;
56037;SDS011;41907;47.848;9.000;2023-07-24T05:31:33;27.45;;;14.68;;
56037;SDS011;41907;47.848;9.000;2023-07-24T05:34:00;42.30;;;27.05;;
56037;SDS011;41907;47.848;9.000;2023-07-24T05:36:25;43.15;;;23.08;;
56037;SDS011;41907;47.848;9.000;2023-07-24T05:38:51;59.63;;;38.90;;
56037;SDS011;41907;47.848;9.000;2023-07-24T05:41:17;40.15;;;24.58;;
56037;SDS011;41907;47.848;9.000;2023-07-24T05:43:43;49.28;;;30.38;;
56037;SDS011;41907;47.848;9.000;2023-07-24T05:46:08;81.80;;;44.90;;
56037;SDS011;41907;47.848;9.000;2023-07-24T05:48:33;53.60;;;33.63;;
56037;SDS011;41907;47.848;9.000;2023-07-24T05:50:59;38.92;;;22.83;;
56037;SDS011;41907;47.848;9.000;2023-07-24T05:53:24;49.92;;;27.08;;
56037;SDS011;41907;47.848;9.000;2023-07-24T05:55:59;55.80;;;25.92;;
56037;SDS011;41907;47.848;9.000;2023-07-24T05:58:25;29.63;;;18.33;;
56037;SDS011;41907;47.848;9.000;2023-07-24T06:00:51;25.27;;;15.70;;
56037;SDS011;41907;47.848;9.000;2023-07-24T06:03:16;32.72;;;21.38;;
56037;SDS011;41907;47.848;9.000;2023-07-24T06:05:42;47.67;;;31.02;;
56037;SDS011;41907;47.848;9.000;2023-07-24T06:08:07;48.17;;;32.33;;
56037;SDS011;41907;47.848;9.000;2023-07-24T06:10:33;30.75;;;20.65;;
56037;SDS011;41907;47.848;9.000;2023-07-24T06:12:59;34.90;;;23.42;;
56037;SDS011;41907;47.848;9.000;2023-07-24T06:15:25;41.40;;;26.33;;
56037;SDS011;41907;47.848;9.000;2023-07-24T06:17:50;26.88;;;17.67;;
56037;SDS011;41907;47.848;9.000;2023-07-24T06:20:15;24.73;;;16.88;;
56037;SDS011;41907;47.848;9.000;2023-07-24T06:22:41;24.48;;;16.23;;
56037;SDS011;41907;47.848;9.000;2023-07-24T06:25:06;19.60;;;13.32;;
56037;SDS011;41907;47.848;9.000;2023-07-24T06:27:32;18.85;;;12.40;;
56037;SDS011;41907;47.848;9.000;2023-07-24T06:29:57;13.70;;;8.93;;
56037;SDS011;41907;47.848;9.000;2023-07-24T06:32:23;14.95;;;8.82;;
56037;SDS011;41907;47.848;9.000;2023-07-24T06:34:48;13.13;;;7.18;;
56037;SDS011;41907;47.848;9.000;2023-07-24T06:37:13;13.40;;;7.45;;
56037;SDS011;41907;47.848;9.000;2023-07-24T06:39:39;11.90;;;7.28;;
56037;SDS011;41907;47.848;9.000;2023-07-24T06:42:04;15.55;;;10.55;;
56037;SDS011;41907;47.848;9.000;2023-07-24T06:44:29;17.15;;;12.77;;
56037;SDS011;41907;47.848;9.000;2023-07-24T06:46:55;11.02;;;7.10;;
56037;SDS011;41907;47.848;9.000;2023-07-24T06:49:20;11.30;;;7.15;;
56037;SDS011;41907;47.848;9.000;2023-07-24T06:51:45;11.60;;;6.88;;
56037;SDS011;41907;47.848;9.000;2023-07-24T06:54:11;11.15;;;7.85;;
56037;SDS011;41907;47.848;9.000;2023-07-24T06:56:36;12.52;;;6.80;;
56037;SDS011;41907;47.848;9.000;2023-07-24T06:59:02;11.00;;;6.10;;
56037;SDS011;41907;47.848;9.000;2023-07-24T07:01:27;8.73;;;5.70;;
56037;SDS011;41907;47.848;9.000;2023-07-24T07:03:53;9.52;;;5.82;;
56037;SDS011;41907;47.848;9.000;2023-07-24T07:06:18;9.05;;;6.68;;
56037;SDS011;41907;47.848;9.000;2023-07-24T07:08:43;7.70;;;5.72;;
56037;SDS011;41907;47.848;9.000;2023-07-24T07:11:09;9.07;;;5.68;;
56037;SDS011;41907;47.848;9.000;2023-07-24T07:13:34;9.63;;;5.40;;
56037;SDS011;41907;47.848;9.000;2023-07-24T07:15:59;8.95;;;5.60;;
56037;SDS011;41907;47.848;9.000;2023-07-24T07:18:25;9.32;;;5.47;;
56037;SDS011;41907;47.848;9.000;2023-07-24T07:20:51;9.73;;;5.90;;
56037;SDS011;41907;47.848;9.000;2023-07-24T07:23:17;9.75;;;5.90;;
56037;SDS011;41907;47.848;9.000;2023-07-24T07:25:43;10.05;;;5.45;;
56037;SDS011;41907;47.848;9.000;2023-07-24T07:28:10;8.90;;;5.68;;
56037;SDS011;41907;47.848;9.000;2023-07-24T07:30:39;9.93;;;6.15;;
56037;SDS011;41907;47.848;9.000;2023-07-24T07:33:08;9.75;;;5.53;;
56037;SDS011;41907;47.848;9.000;2023-07-24T07:35:33;11.18;;;5.38;;
56037;SDS011;41907;47.848;9.000;2023-07-24T07:37:59;8.68;;;5.38;;
56037;SDS011;41907;47.848;9.000;2023-07-24T07:40:25;9.27;;;6.03;;
56037;SDS011;41907;47.848;9.000;2023-07-24T07:42:52;8.93;;;5.50;;
56037;SDS011;41907;47.848;9.000;2023-07-24T07:45:18;9.85;;;6.55;;
56037;SDS011;41907;47.848;9.000;2023-07-24T07:47:44;28.58;;;25.17;;
56037;SDS011;41907;47.848;9.000;2023-07-24T07:50:09;15.40;;;12.95;;
56037;SDS011;41907;47.848;9.000;2023-07-24T07:52:35;11.65;;;7.03;;
56037;SDS011;41907;47.848;9.000;2023-07-24T07:55:00;8.43;;;5.68;;
56037;SDS011;41907;47.848;9.000;2023-07-24T07:57:25;12.50;;;7.28;;
56037;SDS011;41907;47.848;9.000;2023-07-24T07:59:51;14.85;;;11.55;;
56037;SDS011;41907;47.848;9.000;2023-07-24T08:02:16;19.50;;;16.30;;
56037;SDS011;41907;47.848;9.000;2023-07-24T08:04:41;11.68;;;8.52;;
56037;SDS011;41907;47.848;9.000;2023-07-24T08:07:07;13.75;;;7.07;;
56037;SDS011;41907;47.848;9.000;2023-07-24T08:09:32;8.50;;;6.13;;
56037;SDS011;41907;47.848;9.000;2023-07-24T08:11:58;9.23;;;6.43;;
56037;SDS011;41907;47.848;9.000;2023-07-24T08:14:24;9.52;;;6.07;;
56037;SDS011;41907;47.848;9.000;2023-07-24T08:16:50;7.40;;;5.25;;
56037;SDS011;41907;47.848;9.000;2023-07-24T08:19:15;8.07;;;4.10;;
56037;SDS011;41907;47.848;9.000;2023-07-24T08:21:41;8.13;;;5.07;;
56037;SDS011;41907;47.848;9.000;2023-07-24T08:24:06;7.47;;;4.10;;
56037;SDS011;41907;47.848;9.000;2023-07-24T08:26:32;7.78;;;4.50;;
56037;SDS011;41907;47.848;9.000;2023-07-24T08:28:58;7.10;;;4.43;;
56037;SDS011;41907;47.848;9.000;2023-07-24T08:31:23;7.55;;;4.40;;
56037;SDS011;41907;47.848;9.000;2023-07-24T08:33:48;8.88;;;5.07;;
56037;SDS011;41907;47.848;9.000;2023-07-24T08:36:14;15.40;;;11.50;;
56037;SDS011;41907;47.848;9.000;2023-07-24T08:38:39;12.65;;;8.88;;
56037;SDS011;41907;47.848;9.000;2023-07-24T08:41:12;33.15;;;24.40;;
56037;SDS011;41907;47.848;9.000;2023-07-24T08:43:39;21.63;;;17.08;;
56037;SDS011;41907;47.848;9.000;2023-07-24T08:46:06;16.38;;;12.40;;
56037;SDS011;41907;47.848;9.000;2023-07-24T08:48:35;13.50;;;11.65;;
56037;SDS011;41907;47.848;9.000;2023-07-24T08:51:02;11.60;;;8.77;;
56037;SDS011;41907;47.848;9.000;2023-07-24T08:53:29;9.30;;;6.68;;
56037;SDS011;41907;47.848;9.000;2023-07-24T08:55:57;10.95;;;6.80;;
56037;SDS011;41907;47.848;9.000;2023-07-24T08:58:24;9.77;;;6.97;;
56037;SDS011;41907;47.848;9.000;2023-07-24T09:00:50;12.25;;;8.95;;
56037;SDS011;41907;47.848;9.000;2023-07-24T09:03:17;11.90;;;5.22;;
56037;SDS011;41907;47.848;9.000;2023-07-24T09:05:43;8.85;;;5.80;;
56037;SDS011;41907;47.848;9.000;2023-07-24T09:08:09;7.30;;;4.10;;
56037;SDS011;41907;47.848;9.000;2023-07-24T09:10:34;7.60;;;4.28;;
56037;SDS011;41907;47.848;9.000;2023-07-24T09:13:00;9.90;;;4.93;;
56037;SDS011;41907;47.848;9.000;2023-07-24T09:15:28;10.93;;;6.57;;
56037;SDS011;41907;47.848;9.000;2023-07-24T09:17:54;8.45;;;5.30;;
56037;SDS011;41907;47.848;9.000;2023-07-24T09:20:20;10.50;;;5.25;;
56037;SDS011;41907;47.848;9.000;2023-07-24T09:22:52;11.45;;;5.53;;
56037;SDS011;41907;47.848;9.000;2023-07-24T09:25:29;6.07;;;4.10;;
56037;SDS011;41907;47.848;9.000;2023-07-24T09:27:55;7.43;;;4.05;;
56037;SDS011;41907;47.848;9.000;2023-07-24T09:30:22;8.00;;;4.80;;
56037;SDS011;41907;47.848;9.000;2023-07-24T09:32:54;7.88;;;4.22;;
56037;SDS011;41907;47.848;9.000;2023-07-24T09:35:21;14.52;;;5.20;;
56037;SDS011;41907;47.848;9.000;2023-07-24T09:38:09;5.93;;;3.70;;
56037;SDS011;41907;47.848;9.000;2023-07-24T09:43:21;7.25;;;4.07;;
56037;SDS011;41907;47.848;9.000;2023-07-24T09:45:52;7.18;;;4.70;;
56037;SDS011;41907;47.848;9.000;2023-07-24T09:48:20;6.07;;;4.05;;
56037;SDS011;41907;47.848;9.000;2023-07-24T09:50:47;7.47;;;4.78;;
56037;SDS011;41907;47.848;9.000;2023-07-24T09:53:21;10.07;;;5.45;;
56037;SDS011;41907;47.848;9.000;2023-07-24T09:58:24;5.85;;;4.22;;
56037;SDS011;41907;47.848;9.000;2023-07-24T10:00:51;7.55;;;4.10;;
56037;SDS011;41907;47.848;9.000;2023-07-24T10:03:17;9.02;;;4.93;;
56037;SDS011;41907;47.848;9.000;2023-07-24T10:05:46;6.13;;;3.97;;
56037;SDS011;41907;47.848;9.000;2023-07-24T10:08:14;9.60;;;4.47;;
56037;SDS011;41907;47.848;9.000;2023-07-24T10:10:40;7.35;;;3.90;;
56037;SDS011;41907;47.848;9.000;2023-07-24T10:13:06;8.15;;;3.95;;
56037;SDS011;41907;47.848;9.000;2023-07-24T10:15:35;6.57;;;4.10;;
56037;SDS011;41907;47.848;9.000;2023-07-24T10:18:05;6.70;;;4.45;;
56037;SDS011;41907;47.848;9.000;2023-07-24T10:20:35;10.52;;;4.82;;
56037;SDS011;41907;47.848;9.000;2023-07-24T10:23:02;11.43;;;5.30;;
56037;SDS011;41907;47.848;9.000;2023-07-24T10:25:28;10.40;;;5.18;;
56037;SDS011;41907;47.848;9.000;2023-07-24T10:28:00;7.03;;;5.18;;
56037;SDS011;41907;47.848;9.000;2023-07-24T10:30:32;8.95;;;6.13;;
56037;SDS011;41907;47.848;9.000;2023-07-24T10:33:13;8.07;;;5.03;;
56037;SDS011;41907;47.848;9.000;2023-07-24T10:35:47;8.23;;;5.15;;
56037;SDS011;41907;47.848;9.000;2023-07-24T10:38:16;7.65;;;4.88;;
56037;SDS011;41907;47.848;9.000;2023-07-24T10:40:42;9.77;;;5.07;;
56037;SDS011;41907;47.848;9.000;2023-07-24T10:43:10;6.85;;;4.72;;
56037;SDS011;41907;47.848;9.000;2023-07-24T10:45:53;3.58;;;2.53;;
56037;SDS011;41907;47.848;9.000;2023-07-24T10:48:20;3.55;;;2.13;;
56037;SDS011;41907;47.848;9.000;2023-07-24T10:50:47;2.85;;;2.00;;
56037;SDS011;41907;47.848;9.000;2023-07-24T10:53:15;3.25;;;1.60;;
56037;SDS011;41907;47.848;9.000;2023-07-24T10:55:42;1.85;;;1.40;;
56037;SDS011;41907;47.848;9.000;2023-07-24T10:58:09;2.25;;;1.20;;
56037;SDS011;41907;47.848;9.000;2023-07-24T11:00:36;2.58;;;1.52;;
56037;SDS011;41907;47.848;9.000;2023-07-24T11:03:03;4.15;;;1.63;;
56037;SDS011;41907;47.848;9.000;2023-07-24T11:05:28;3.92;;;1.52;;
56037;SDS011;41907;47.848;9.000;2023-07-24T11:07:54;3.25;;;1.30;;
56037;SDS011;41907;47.848;9.000;2023-07-24T11:10:20;2.10;;;1.35;;
56037;SDS011;41907;47.848;9.000;2023-07-24T11:12:47;3.35;;;1.75;;
56037;SDS011;41907;47.848;9.000;2023-07-24T11:15:13;2.88;;;1.67;;
56037;SDS011;41907;47.848;9.000;2023-07-24T11:17:39;5.28;;;1.85;;
56037;SDS011;41907;47.848;9.000;2023-07-24T11:20:12;3.08;;;1.58;;
56037;SDS011;41907;47.848;9.000;2023-07-24T11:22:39;3.22;;;1.90;;
56037;SDS011;41907;47.848;9.000;2023-07-24T11:25:05;3.03;;;1.35;;
56037;SDS011;41907;47.848;9.000;2023-07-24T11:27:31;3.20;;;2.15;;
56037;SDS011;41907;47.848;9.000;2023-07-24T11:29:57;7.15;;;2.70;;
56037;SDS011;41907;47.848;9.000;2023-07-24T11:32:23;5.35;;;2.30;;
56037;SDS011;41907;47.848;9.000;2023-07-24T11:34:48;4.03;;;2.65;;
56037;SDS011;41907;47.848;9.000;2023-07-24T11:37:15;2.90;;;1.92;;
56037;SDS011;41907;47.848;9.000;2023-07-24T11:39:41;4.55;;;2.13;;
56037;SDS011;41907;47.848;9.000;2023-07-24T11:42:06;4.88;;;1.85;;
56037;SDS011;41907;47.848;9.000;2023-07-24T11:44:32;3.58;;;1.73;;
56037;SDS011;41907;47.848;9.000;2023-07-24T11:47:04;4.28;;;1.70;;
56037;SDS011;41907;47.848;9.000;2023-07-24T11:49:31;4.70;;;2.40;;
56037;SDS011;41907;47.848;9.000;2023-07-24T11:52:04;4.57;;;2.00;;
56037;SDS011;41907;47.848;9.000;2023-07-24T11:54:33;3.40;;;2.03;;
56037;SDS011;41907;47.848;9.000;2023-07-24T11:56:59;4.22;;;1.42;;
56037;SDS011;41907;47.848;9.000;2023-07-24T11:59:24;3.22;;;1.50;;
56037;SDS011;41907;47.848;9.000;2023-07-24T12:01:50;4.40;;;2.00;;
56037;SDS011;41907;47.848;9.000;2023-07-24T12:04:16;4.38;;;1.90;;
56037;SDS011;41907;47.848;9.000;2023-07-24T12:06:42;4.28;;;2.42;;
56037;SDS011;41907;47.848;9.000;2023-07-24T12:09:08;3.30;;;1.88;;
56037;SDS011;41907;47.848;9.000;2023-07-24T12:11:41;3.08;;;2.40;;
56037;SDS011;41907;47.848;9.000;2023-07-24T12:14:08;1.90;;;1.55;;
56037;SDS011;41907;47.848;9.000;2023-07-24T12:16:34;3.67;;;2.00;;
56037;SDS011;41907;47.848;9.000;2023-07-24T12:19:00;2.60;;;1.65;;
56037;SDS011;41907;47.848;9.000;2023-07-24T12:21:26;4.55;;;2.28;;
56037;SDS011;41907;47.848;9.000;2023-07-24T12:23:51;3.50;;;2.10;;
56037;SDS011;41907;47.848;9.000;2023-07-24T12:26:16;2.95;;;1.80;;
56037;SDS011;41907;47.848;9.000;2023-07-24T12:28:42;3.67;;;1.77;;
56037;SDS011;41907;47.848;9.000;2023-07-24T12:31:07;3.80;;;2.53;;
56037;SDS011;41907;47.848;9.000;2023-07-24T12:33:33;2.35;;;1.70;;
56037;SDS011;41907;47.848;9.000;2023-07-24T12:35:58;4.82;;;3.28;;
56037;SDS011;41907;47.848;9.000;2023-07-24T12:38:23;3.67;;;1.73;;
56037;SDS011;41907;47.848;9.000;2023-07-24T12:40:49;1.80;;;1.50;;
56037;SDS011;41907;47.848;9.000;2023-07-24T12:43:14;2.25;;;1.50;;
56037;SDS011;41907;47.848;9.000;2023-07-24T12:45:40;2.97;;;1.70;;
56037;SDS011;41907;47.848;9.000;2023-07-24T12:48:05;2.40;;;1.45;;
56037;SDS011;41907;47.848;9.000;2023-07-24T12:50:31;2.03;;;1.60;;
56037;SDS011;41907;47.848;9.000;2023-07-24T12:52:56;3.97;;;1.92;;
56037;SDS011;41907;47.848;9.000;2023-07-24T12:55:21;3.50;;;2.60;;
56037;SDS011;41907;47.848;9.000;2023-07-24T12:57:47;3.70;;;1.80;;
56037;SDS011;41907;47.848;9.000;2023-07-24T13:00:12;3.30;;;1.92;;
56037;SDS011;41907;47.848;9.000;2023-07-24T13:02:38;2.78;;;1.83;;
56037;SDS011;41907;47.848;9.000;2023-07-24T13:05:03;3.13;;;1.60;;
56037;SDS011;41907;47.848;9.000;2023-07-24T13:07:28;1.92;;;1.73;;
56037;SDS011;41907;47.848;9.000;2023-07-24T13:09:54;3.05;;;1.70;;
56037;SDS011;41907;47.848;9.000;2023-07-24T13:12:19;2.22;;;1.63;;
56037;SDS011;41907;47.848;9.000;2023-07-24T13:14:45;3.88;;;1.63;;
56037;SDS011;41907;47.848;9.000;2023-07-24T13:17:10;2.75;;;1.75;;
56037;SDS011;41907;47.848;9.000;2023-07-24T13:19:36;2.25;;;1.88;;
56037;SDS011;41907;47.848;9.000;2023-07-24T13:22:01;3.70;;;2.03;;
56037;SDS011;41907;47.848;9.000;2023-07-24T13:24:26;7.63;;;6.18;;
56037;SDS011;41907;47.848;9.000;2023-07-24T13:26:52;16.52;;;11.18;;
56037;SDS011;41907;47.848;9.000;2023-07-24T13:29:17;2.88;;;2.45;;
56037;SDS011;41907;47.848;9.000;2023-07-24T13:31:43;19.67;;;17.50;;
56037;SDS011;41907;47.848;9.000;2023-07-24T13:34:08;2.95;;;2.20;;
56037;SDS011;41907;47.848;9.000;2023-07-24T13:36:33;4.00;;;2.17;;
56037;SDS011;41907;47.848;9.000;2023-07-24T13:38:59;4.38;;;2.53;;
56037;SDS011;41907;47.848;9.000;2023-07-24T13:41:24;5.32;;;2.85;;
56037;SDS011;41907;47.848;9.000;2023-07-24T13:43:50;5.00;;;2.38;;
56037;SDS011;41907;47.848;9.000;2023-07-24T13:46:15;2.97;;;2.03;;
56037;SDS011;41907;47.848;9.000;2023-07-24T13:48:40;3.05;;;1.73;;
56037;SDS011;41907;47.848;9.000;2023-07-24T13:51:06;1.98;;;1.63;;
56037;SDS011;41907;47.848;9.000;2023-07-24T13:53:31;9.43;;;4.63;;
56037;SDS011;41907;47.848;9.000;2023-07-24T13:55:56;7.38;;;3.97;;
56037;SDS011;41907;47.848;9.000;2023-07-24T13:58:22;9.55;;;4.97;;
56037;SDS011;41907;47.848;9.000;2023-07-24T14:00:47;7.07;;;3.78;;
56037;SDS011;41907;47.848;9.000;2023-07-24T14:03:12;5.05;;;3.17;;
56037;SDS011;41907;47.848;9.000;2023-07-24T14:05:38;8.00;;;3.85;;
56037;SDS011;41907;47.848;9.000;2023-07-24T14:08:03;5.25;;;3.22;;
56037;SDS011;41907;47.848;9.000;2023-07-24T14:10:29;6.60;;;3.10;;
56037;SDS011;41907;47.848;9.000;2023-07-24T14:12:55;6.60;;;2.28;;
56037;SDS011;41907;47.848;9.000;2023-07-24T14:15:20;3.95;;;2.28;;
56037;SDS011;41907;47.848;9.000;2023-07-24T14:17:46;3.53;;;2.22;;
56037;SDS011;41907;47.848;9.000;2023-07-24T14:20:11;3.33;;;2.33;;
56037;SDS011;41907;47.848;9.000;2023-07-24T14:22:37;3.50;;;1.90;;
56037;SDS011;41907;47.848;9.000;2023-07-24T14:25:03;4.18;;;2.00;;
56037;SDS011;41907;47.848;9.000;2023-07-24T14:27:29;3.85;;;2.20;;
56037;SDS011;41907;47.848;9.000;2023-07-24T14:29:54;6.25;;;2.80;;
56037;SDS011;41907;47.848;9.000;2023-07-24T14:32:20;10.32;;;5.18;;
56037;SDS011;41907;47.848;9.000;2023-07-24T14:34:50;10.57;;;6.80;;
56037;SDS011;41907;47.848;9.000;2023-07-24T14:37:16;6.22;;;3.97;;
56037;SDS011;41907;47.848;9.000;2023-07-24T14:39:42;6.22;;;3.20;;